sensor_id;sensor_type;location;lat;lon;timestamp;P1;durP1;ratioP1;P2;durP2;ratioP2
78889;SDS011;68279;48.964;14.502;2023-04-25T00:01:20;2.97;;;1.30;;
78889;SDS011;68279;48.964;14.502;2023-04-25T00:03:49;2.35;;;1.20;;
78889;SDS011;68279;48.964;14.502;2023-04-25T00:06:15;2.17;;;1.17;;
78889;SDS011;68279;48.964;14.502;2023-04-25T00:08:42;1.98;;;1.10;;
78889;SDS011;68279;48.964;14.502;2023-04-25T00:11:07;4.13;;;1.30;;
78889;SDS011;68279;48.964;14.502;2023-04-25T00:13:33;2.30;;;1.30;;
78889;SDS011;68279;48.964;14.502;2023-04-25T00:15:58;1.80;;;0.95;;
78889;SDS011;68279;48.964;14.502;2023-04-25T00:18:25;2.00;;;1.02;;
78889;SDS011;68279;48.964;14.502;2023-04-25T00:20:54;3.00;;;1.08;;
78889;SDS011;68279;48.964;14.502;2023-04-25T00:23:20;2.33;;;1.00;;
78889;SDS011;68279;48.964;14.502;2023-04-25T00:25:49;3.25;;;1.52;;
78889;SDS011;68279;48.964;14.502;2023-04-25T00:28:15;2.25;;;1.20;;
78889;SDS011;68279;48.964;14.502;2023-04-25T00:30:41;2.05;;;1.13;;
78889;SDS011;68279;48.964;14.502;2023-04-25T00:33:08;2.67;;;1.23;;
78889;SDS011;68279;48.964;14.502;2023-04-25T00:35:34;2.50;;;1.42;;
78889;SDS011;68279;48.964;14.502;2023-04-25T00:38:00;2.72;;;1.40;;
78889;SDS011;68279;48.964;14.502;2023-04-25T00:40:25;2.70;;;1.40;;
78889;SDS011;68279;48.964;14.502;2023-04-25T00:42:52;3.63;;;1.35;;
78889;SDS011;68279;48.964;14.502;2023-04-25T00:45:18;4.75;;;1.27;;
78889;SDS011;68279;48.964;14.502;2023-04-25T00:47:44;2.75;;;1.15;;
78889;SDS011;68279;48.964;14.502;2023-04-25T00:50:10;2.67;;;1.38;;
78889;SDS011;68279;48.964;14.502;2023-04-25T00:52:40;2.10;;;1.13;;
78889;SDS011;68279;48.964;14.502;2023-04-25T00:55:08;2.72;;;1.33;;
78889;SDS011;68279;48.964;14.502;2023-04-25T00:57:35;2.33;;;1.42;;
78889;SDS011;68279;48.964;14.502;2023-04-25T01:00:02;3.10;;;1.67;;
78889;SDS011;68279;48.964;14.502;2023-04-25T01:02:30;1.42;;;0.90;;
78889;SDS011;68279;48.964;14.502;2023-04-25T01:04:57;2.17;;;1.30;;
78889;SDS011;68279;48.964;14.502;2023-04-25T01:07:23;2.38;;;1.25;;
78889;SDS011;68279;48.964;14.502;2023-04-25T01:09:51;2.40;;;1.50;;
78889;SDS011;68279;48.964;14.502;2023-04-25T01:12:17;2.65;;;1.30;;
78889;SDS011;68279;48.964;14.502;2023-04-25T01:14:43;3.83;;;1.77;;
78889;SDS011;68279;48.964;14.502;2023-04-25T01:17:10;3.47;;;1.85;;
78889;SDS011;68279;48.964;14.502;2023-04-25T01:19:36;2.97;;;1.35;;
78889;SDS011;68279;48.964;14.502;2023-04-25T01:22:01;2.45;;;1.20;;
78889;SDS011;68279;48.964;14.502;2023-04-25T01:24:27;1.90;;;1.05;;
78889;SDS011;68279;48.964;14.502;2023-04-25T01:26:53;6.15;;;2.05;;
78889;SDS011;68279;48.964;14.502;2023-04-25T01:29:21;10.27;;;2.30;;
78889;SDS011;68279;48.964;14.502;2023-04-25T01:31:48;6.88;;;2.40;;
78889;SDS011;68279;48.964;14.502;2023-04-25T01:34:14;2.30;;;1.15;;
78889;SDS011;68279;48.964;14.502;2023-04-25T01:36:40;2.67;;;1.42;;
78889;SDS011;68279;48.964;14.502;2023-04-25T01:39:05;8.25;;;2.05;;
78889;SDS011;68279;48.964;14.502;2023-04-25T01:41:32;4.60;;;1.98;;
78889;SDS011;68279;48.964;14.502;2023-04-25T01:43:59;3.60;;;1.60;;
78889;SDS011;68279;48.964;14.502;2023-04-25T01:46:25;2.70;;;1.23;;
78889;SDS011;68279;48.964;14.502;2023-04-25T01:48:51;2.42;;;1.05;;
78889;SDS011;68279;48.964;14.502;2023-04-25T01:51:16;2.10;;;1.17;;
78889;SDS011;68279;48.964;14.502;2023-04-25T01:53:42;6.32;;;2.25;;
78889;SDS011;68279;48.964;14.502;2023-04-25T01:56:08;3.55;;;1.70;;
78889;SDS011;68279;48.964;14.502;2023-04-25T01:58:34;1.80;;;1.13;;
78889;SDS011;68279;48.964;14.502;2023-04-25T02:00:59;1.63;;;0.93;;
78889;SDS011;68279;48.964;14.502;2023-04-25T02:03:25;2.78;;;1.17;;
78889;SDS011;68279;48.964;14.502;2023-04-25T02:05:51;2.58;;;1.23;;
78889;SDS011;68279;48.964;14.502;2023-04-25T02:08:17;4.15;;;1.42;;
78889;SDS011;68279;48.964;14.502;2023-04-25T02:10:43;1.92;;;1.30;;
78889;SDS011;68279;48.964;14.502;2023-04-25T02:13:09;3.50;;;1.38;;
78889;SDS011;68279;48.964;14.502;2023-04-25T02:15:34;2.65;;;1.08;;
78889;SDS011;68279;48.964;14.502;2023-04-25T02:18:00;1.83;;;1.33;;
78889;SDS011;68279;48.964;14.502;2023-04-25T02:20:27;2.40;;;0.95;;
78889;SDS011;68279;48.964;14.502;2023-04-25T02:22:55;4.25;;;2.05;;
78889;SDS011;68279;48.964;14.502;2023-04-25T02:25:21;2.95;;;1.20;;
78889;SDS011;68279;48.964;14.502;2023-04-25T02:27:47;3.25;;;1.38;;
78889;SDS011;68279;48.964;14.502;2023-04-25T02:30:13;2.35;;;1.35;;
78889;SDS011;68279;48.964;14.502;2023-04-25T02:32:39;2.38;;;1.33;;
78889;SDS011;68279;48.964;14.502;2023-04-25T02:35:05;2.75;;;1.30;;
78889;SDS011;68279;48.964;14.502;2023-04-25T02:37:34;1.52;;;0.85;;
78889;SDS011;68279;48.964;14.502;2023-04-25T02:40:02;2.78;;;1.20;;
78889;SDS011;68279;48.964;14.502;2023-04-25T02:42:29;2.13;;;1.27;;
78889;SDS011;68279;48.964;14.502;2023-04-25T02:44:55;3.15;;;1.10;;
78889;SDS011;68279;48.964;14.502;2023-04-25T02:47:20;2.60;;;1.48;;
78889;SDS011;68279;48.964;14.502;2023-04-25T02:49:46;3.05;;;1.65;;
78889;SDS011;68279;48.964;14.502;2023-04-25T02:52:12;2.00;;;1.20;;
78889;SDS011;68279;48.964;14.502;2023-04-25T02:54:38;2.40;;;1.45;;
78889;SDS011;68279;48.964;14.502;2023-04-25T02:57:05;2.47;;;1.45;;
78889;SDS011;68279;48.964;14.502;2023-04-25T02:59:31;2.45;;;1.38;;
78889;SDS011;68279;48.964;14.502;2023-04-25T03:01:57;1.70;;;1.05;;
78889;SDS011;68279;48.964;14.502;2023-04-25T03:04:22;3.22;;;1.23;;
78889;SDS011;68279;48.964;14.502;2023-04-25T03:06:49;2.08;;;1.17;;
78889;SDS011;68279;48.964;14.502;2023-04-25T03:09:15;2.88;;;1.73;;
78889;SDS011;68279;48.964;14.502;2023-04-25T03:11:41;2.83;;;2.17;;
78889;SDS011;68279;48.964;14.502;2023-04-25T03:14:07;3.10;;;1.63;;
78889;SDS011;68279;48.964;14.502;2023-04-25T03:16:33;2.90;;;1.70;;
78889;SDS011;68279;48.964;14.502;2023-04-25T03:18:59;3.92;;;1.70;;
78889;SDS011;68279;48.964;14.502;2023-04-25T03:21:24;4.20;;;1.67;;
78889;SDS011;68279;48.964;14.502;2023-04-25T03:23:51;3.45;;;1.85;;
78889;SDS011;68279;48.964;14.502;2023-04-25T03:26:17;2.75;;;1.60;;
78889;SDS011;68279;48.964;14.502;2023-04-25T03:28:43;5.25;;;1.88;;
78889;SDS011;68279;48.964;14.502;2023-04-25T03:31:09;2.10;;;1.35;;
78889;SDS011;68279;48.964;14.502;2023-04-25T03:33:34;3.25;;;1.67;;
78889;SDS011;68279;48.964;14.502;2023-04-25T03:36:00;3.28;;;1.75;;
78889;SDS011;68279;48.964;14.502;2023-04-25T03:38:26;1.58;;;0.85;;
78889;SDS011;68279;48.964;14.502;2023-04-25T03:40:51;6.00;;;1.83;;
78889;SDS011;68279;48.964;14.502;2023-04-25T03:43:17;3.45;;;1.48;;
78889;SDS011;68279;48.964;14.502;2023-04-25T03:45:43;2.15;;;1.33;;
78889;SDS011;68279;48.964;14.502;2023-04-25T03:48:09;2.70;;;1.50;;
78889;SDS011;68279;48.964;14.502;2023-04-25T03:50:35;2.75;;;1.30;;
78889;SDS011;68279;48.964;14.502;2023-04-25T03:53:07;2.47;;;1.20;;
78889;SDS011;68279;48.964;14.502;2023-04-25T03:55:33;2.38;;;1.33;;
78889;SDS011;68279;48.964;14.502;2023-04-25T03:57:59;2.28;;;1.33;;
78889;SDS011;68279;48.964;14.502;2023-04-25T04:00:24;2.63;;;1.42;;
78889;SDS011;68279;48.964;14.502;2023-04-25T04:02:50;2.67;;;1.92;;
78889;SDS011;68279;48.964;14.502;2023-04-25T04:05:16;2.65;;;0.93;;
78889;SDS011;68279;48.964;14.502;2023-04-25T04:07:42;2.53;;;1.50;;
78889;SDS011;68279;48.964;14.502;2023-04-25T04:10:10;3.17;;;2.00;;
78889;SDS011;68279;48.964;14.502;2023-04-25T04:12:37;3.20;;;1.35;;
78889;SDS011;68279;48.964;14.502;2023-04-25T04:15:03;2.85;;;1.23;;
78889;SDS011;68279;48.964;14.502;2023-04-25T04:17:31;1.90;;;1.45;;
78889;SDS011;68279;48.964;14.502;2023-04-25T04:19:57;2.42;;;1.63;;
78889;SDS011;68279;48.964;14.502;2023-04-25T04:22:23;3.78;;;2.13;;
78889;SDS011;68279;48.964;14.502;2023-04-25T04:24:49;3.65;;;1.77;;
78889;SDS011;68279;48.964;14.502;2023-04-25T04:27:15;3.30;;;1.77;;
78889;SDS011;68279;48.964;14.502;2023-04-25T04:29:42;2.67;;;1.27;;
78889;SDS011;68279;48.964;14.502;2023-04-25T04:32:08;2.85;;;1.55;;
78889;SDS011;68279;48.964;14.502;2023-04-25T04:34:34;2.28;;;1.35;;
78889;SDS011;68279;48.964;14.502;2023-04-25T04:37:00;2.20;;;1.20;;
78889;SDS011;68279;48.964;14.502;2023-04-25T04:39:26;3.45;;;2.03;;
78889;SDS011;68279;48.964;14.502;2023-04-25T04:41:52;3.05;;;1.60;;
78889;SDS011;68279;48.964;14.502;2023-04-25T04:44:18;4.13;;;1.75;;
78889;SDS011;68279;48.964;14.502;2023-04-25T04:46:45;2.83;;;1.60;;
78889;SDS011;68279;48.964;14.502;2023-04-25T04:49:11;2.28;;;0.90;;
78889;SDS011;68279;48.964;14.502;2023-04-25T04:51:39;3.47;;;2.03;;
78889;SDS011;68279;48.964;14.502;2023-04-25T04:54:09;3.40;;;2.10;;
78889;SDS011;68279;48.964;14.502;2023-04-25T04:56:35;5.35;;;2.05;;
78889;SDS011;68279;48.964;14.502;2023-04-25T04:59:01;4.80;;;2.25;;
78889;SDS011;68279;48.964;14.502;2023-04-25T05:01:28;6.95;;;2.80;;
78889;SDS011;68279;48.964;14.502;2023-04-25T05:03:55;5.47;;;2.60;;
78889;SDS011;68279;48.964;14.502;2023-04-25T05:06:25;3.70;;;2.08;;
78889;SDS011;68279;48.964;14.502;2023-04-25T05:08:51;3.28;;;2.47;;
78889;SDS011;68279;48.964;14.502;2023-04-25T05:11:18;2.72;;;1.90;;
78889;SDS011;68279;48.964;14.502;2023-04-25T05:13:44;4.60;;;1.90;;
78889;SDS011;68279;48.964;14.502;2023-04-25T05:16:11;4.90;;;1.80;;
78889;SDS011;68279;48.964;14.502;2023-04-25T05:18:37;6.18;;;1.92;;
78889;SDS011;68279;48.964;14.502;2023-04-25T05:21:03;4.25;;;2.00;;
78889;SDS011;68279;48.964;14.502;2023-04-25T05:23:28;4.03;;;2.33;;
78889;SDS011;68279;48.964;14.502;2023-04-25T05:25:55;4.15;;;2.50;;
78889;SDS011;68279;48.964;14.502;2023-04-25T05:28:21;4.40;;;2.15;;
78889;SDS011;68279;48.964;14.502;2023-04-25T05:30:47;3.55;;;1.67;;
78889;SDS011;68279;48.964;14.502;2023-04-25T05:33:13;4.75;;;2.17;;
78889;SDS011;68279;48.964;14.502;2023-04-25T05:35:38;4.10;;;2.13;;
78889;SDS011;68279;48.964;14.502;2023-04-25T05:38:04;3.53;;;1.50;;
78889;SDS011;68279;48.964;14.502;2023-04-25T05:40:30;3.63;;;1.92;;
78889;SDS011;68279;48.964;14.502;2023-04-25T05:42:55;3.10;;;1.45;;
78889;SDS011;68279;48.964;14.502;2023-04-25T05:45:21;4.03;;;1.98;;
78889;SDS011;68279;48.964;14.502;2023-04-25T05:47:46;4.57;;;2.03;;
78889;SDS011;68279;48.964;14.502;2023-04-25T05:50:12;5.47;;;2.70;;
78889;SDS011;68279;48.964;14.502;2023-04-25T05:52:38;4.45;;;2.10;;
78889;SDS011;68279;48.964;14.502;2023-04-25T05:55:04;5.20;;;2.90;;
78889;SDS011;68279;48.964;14.502;2023-04-25T05:57:29;4.50;;;2.20;;
78889;SDS011;68279;48.964;14.502;2023-04-25T05:59:55;5.07;;;2.45;;
78889;SDS011;68279;48.964;14.502;2023-04-25T06:02:21;6.25;;;1.73;;
78889;SDS011;68279;48.964;14.502;2023-04-25T06:04:47;4.05;;;2.00;;
78889;SDS011;68279;48.964;14.502;2023-04-25T06:07:14;3.33;;;2.10;;
78889;SDS011;68279;48.964;14.502;2023-04-25T06:09:40;3.75;;;2.03;;
78889;SDS011;68279;48.964;14.502;2023-04-25T06:12:06;6.38;;;2.25;;
78889;SDS011;68279;48.964;14.502;2023-04-25T06:14:35;2.97;;;1.65;;
78889;SDS011;68279;48.964;14.502;2023-04-25T06:17:00;4.55;;;2.47;;
78889;SDS011;68279;48.964;14.502;2023-04-25T06:19:32;3.75;;;2.08;;
78889;SDS011;68279;48.964;14.502;2023-04-25T06:21:58;5.82;;;2.13;;
78889;SDS011;68279;48.964;14.502;2023-04-25T06:24:24;4.53;;;2.25;;
78889;SDS011;68279;48.964;14.502;2023-04-25T06:26:50;3.80;;;2.22;;
78889;SDS011;68279;48.964;14.502;2023-04-25T06:29:15;4.53;;;2.83;;
78889;SDS011;68279;48.964;14.502;2023-04-25T06:31:41;3.58;;;1.80;;
78889;SDS011;68279;48.964;14.502;2023-04-25T06:34:07;5.07;;;2.38;;
78889;SDS011;68279;48.964;14.502;2023-04-25T06:36:32;4.90;;;2.75;;
78889;SDS011;68279;48.964;14.502;2023-04-25T06:38:58;3.92;;;2.20;;
78889;SDS011;68279;48.964;14.502;2023-04-25T06:41:23;2.60;;;1.38;;
78889;SDS011;68279;48.964;14.502;2023-04-25T06:43:49;4.68;;;2.38;;
78889;SDS011;68279;48.964;14.502;2023-04-25T06:46:14;5.05;;;2.50;;
78889;SDS011;68279;48.964;14.502;2023-04-25T06:48:40;2.22;;;1.17;;
78889;SDS011;68279;48.964;14.502;2023-04-25T06:51:06;4.50;;;2.20;;
78889;SDS011;68279;48.964;14.502;2023-04-25T06:53:31;3.75;;;1.92;;
78889;SDS011;68279;48.964;14.502;2023-04-25T06:55:57;4.65;;;2.50;;
78889;SDS011;68279;48.964;14.502;2023-04-25T06:58:22;3.10;;;2.15;;
78889;SDS011;68279;48.964;14.502;2023-04-25T07:00:48;4.32;;;2.22;;
78889;SDS011;68279;48.964;14.502;2023-04-25T07:03:14;4.22;;;2.33;;
78889;SDS011;68279;48.964;14.502;2023-04-25T07:05:40;4.22;;;2.58;;
78889;SDS011;68279;48.964;14.502;2023-04-25T07:08:05;3.28;;;1.92;;
78889;SDS011;68279;48.964;14.502;2023-04-25T07:10:31;3.95;;;2.42;;
78889;SDS011;68279;48.964;14.502;2023-04-25T07:12:56;4.25;;;2.22;;
78889;SDS011;68279;48.964;14.502;2023-04-25T07:15:23;3.97;;;2.30;;
78889;SDS011;68279;48.964;14.502;2023-04-25T07:17:49;3.67;;;2.17;;
78889;SDS011;68279;48.964;14.502;2023-04-25T07:20:14;3.58;;;1.80;;
78889;SDS011;68279;48.964;14.502;2023-04-25T07:22:41;4.05;;;2.42;;
78889;SDS011;68279;48.964;14.502;2023-04-25T07:25:06;3.47;;;1.67;;
78889;SDS011;68279;48.964;14.502;2023-04-25T07:27:33;3.42;;;1.83;;
78889;SDS011;68279;48.964;14.502;2023-04-25T07:30:00;4.28;;;2.10;;
78889;SDS011;68279;48.964;14.502;2023-04-25T07:32:25;3.40;;;1.60;;
78889;SDS011;68279;48.964;14.502;2023-04-25T07:34:52;4.55;;;2.20;;
78889;SDS011;68279;48.964;14.502;2023-04-25T07:37:17;4.43;;;2.13;;
78889;SDS011;68279;48.964;14.502;2023-04-25T07:39:44;3.65;;;1.90;;
78889;SDS011;68279;48.964;14.502;2023-04-25T07:42:12;3.90;;;1.55;;
78889;SDS011;68279;48.964;14.502;2023-04-25T07:44:37;2.88;;;1.90;;
78889;SDS011;68279;48.964;14.502;2023-04-25T07:47:07;3.97;;;1.98;;
78889;SDS011;68279;48.964;14.502;2023-04-25T07:49:34;4.20;;;2.10;;
78889;SDS011;68279;48.964;14.502;2023-04-25T07:52:00;4.47;;;2.00;;
78889;SDS011;68279;48.964;14.502;2023-04-25T07:54:26;4.20;;;1.73;;
78889;SDS011;68279;48.964;14.502;2023-04-25T07:56:55;3.15;;;1.80;;
78889;SDS011;68279;48.964;14.502;2023-04-25T07:59:24;4.80;;;1.73;;
78889;SDS011;68279;48.964;14.502;2023-04-25T08:01:55;2.58;;;1.20;;
78889;SDS011;68279;48.964;14.502;2023-04-25T08:04:22;2.15;;;1.20;;
78889;SDS011;68279;48.964;14.502;2023-04-25T08:06:49;3.40;;;1.75;;
78889;SDS011;68279;48.964;14.502;2023-04-25T08:09:15;4.22;;;1.70;;
78889;SDS011;68279;48.964;14.502;2023-04-25T08:11:40;3.00;;;1.60;;
78889;SDS011;68279;48.964;14.502;2023-04-25T08:14:07;2.10;;;1.55;;
78889;SDS011;68279;48.964;14.502;2023-04-25T08:16:32;3.00;;;1.63;;
78889;SDS011;68279;48.964;14.502;2023-04-25T08:18:59;2.85;;;1.30;;
78889;SDS011;68279;48.964;14.502;2023-04-25T08:21:25;2.60;;;1.58;;
78889;SDS011;68279;48.964;14.502;2023-04-25T08:23:52;2.38;;;1.10;;
78889;SDS011;68279;48.964;14.502;2023-04-25T08:26:17;2.63;;;1.58;;
78889;SDS011;68279;48.964;14.502;2023-04-25T08:28:43;2.92;;;1.33;;
78889;SDS011;68279;48.964;14.502;2023-04-25T08:31:08;3.42;;;1.65;;
78889;SDS011;68279;48.964;14.502;2023-04-25T08:33:34;2.38;;;1.23;;
78889;SDS011;68279;48.964;14.502;2023-04-25T08:35:59;2.83;;;1.50;;
78889;SDS011;68279;48.964;14.502;2023-04-25T08:38:25;2.22;;;1.58;;
78889;SDS011;68279;48.964;14.502;2023-04-25T08:40:51;2.42;;;1.60;;
78889;SDS011;68279;48.964;14.502;2023-04-25T08:43:18;2.95;;;1.50;;
78889;SDS011;68279;48.964;14.502;2023-04-25T08:45:44;2.92;;;1.92;;
78889;SDS011;68279;48.964;14.502;2023-04-25T08:48:15;2.90;;;1.40;;
78889;SDS011;68279;48.964;14.502;2023-04-25T08:50:45;4.28;;;1.35;;
78889;SDS011;68279;48.964;14.502;2023-04-25T08:53:30;2.28;;;1.42;;
78889;SDS011;68279;48.964;14.502;2023-04-25T08:56:08;2.85;;;1.02;;
78889;SDS011;68279;48.964;14.502;2023-04-25T08:58:35;1.73;;;1.05;;
78889;SDS011;68279;48.964;14.502;2023-04-25T09:01:01;1.67;;;1.02;;
78889;SDS011;68279;48.964;14.502;2023-04-25T09:03:28;2.95;;;1.50;;
78889;SDS011;68279;48.964;14.502;2023-04-25T09:05:54;2.03;;;1.08;;
78889;SDS011;68279;48.964;14.502;2023-04-25T09:08:20;4.50;;;1.08;;
78889;SDS011;68279;48.964;14.502;2023-04-25T09:10:46;3.72;;;0.95;;
78889;SDS011;68279;48.964;14.502;2023-04-25T09:13:12;2.05;;;0.90;;
78889;SDS011;68279;48.964;14.502;2023-04-25T09:15:52;1.98;;;1.27;;
78889;SDS011;68279;48.964;14.502;2023-04-25T09:18:23;2.03;;;1.17;;
78889;SDS011;68279;48.964;14.502;2023-04-25T09:20:50;2.10;;;1.10;;
78889;SDS011;68279;48.964;14.502;2023-04-25T09:23:17;2.50;;;1.38;;
78889;SDS011;68279;48.964;14.502;2023-04-25T09:25:44;2.45;;;1.42;;
78889;SDS011;68279;48.964;14.502;2023-04-25T09:28:13;2.58;;;1.20;;
78889;SDS011;68279;48.964;14.502;2023-04-25T09:30:39;2.60;;;1.63;;
78889;SDS011;68279;48.964;14.502;2023-04-25T09:33:05;2.47;;;1.20;;
78889;SDS011;68279;48.964;14.502;2023-04-25T09:35:42;2.13;;;1.42;;
78889;SDS011;68279;48.964;14.502;2023-04-25T09:40:38;2.70;;;1.30;;
78889;SDS011;68279;48.964;14.502;2023-04-25T09:43:20;2.67;;;1.42;;
78889;SDS011;68279;48.964;14.502;2023-04-25T09:45:47;2.33;;;1.40;;
78889;SDS011;68279;48.964;14.502;2023-04-25T09:48:20;3.80;;;1.40;;
78889;SDS011;68279;48.964;14.502;2023-04-25T09:53:36;2.47;;;1.45;;
78889;SDS011;68279;48.964;14.502;2023-04-25T09:56:04;5.55;;;1.42;;
78889;SDS011;68279;48.964;14.502;2023-04-25T09:58:32;2.83;;;1.30;;
78889;SDS011;68279;48.964;14.502;2023-04-25T10:00:59;3.05;;;1.50;;
78889;SDS011;68279;48.964;14.502;2023-04-25T10:03:26;2.38;;;1.48;;
78889;SDS011;68279;48.964;14.502;2023-04-25T10:05:54;2.97;;;1.17;;
78889;SDS011;68279;48.964;14.502;2023-04-25T10:08:21;1.92;;;0.93;;
78889;SDS011;68279;48.964;14.502;2023-04-25T10:10:51;2.92;;;1.27;;
78889;SDS011;68279;48.964;14.502;2023-04-25T10:13:17;1.90;;;1.05;;
78889;SDS011;68279;48.964;14.502;2023-04-25T10:15:43;2.20;;;1.02;;
78889;SDS011;68279;48.964;14.502;2023-04-25T10:18:09;3.13;;;1.05;;
78889;SDS011;68279;48.964;14.502;2023-04-25T10:20:36;1.80;;;1.10;;
78889;SDS011;68279;48.964;14.502;2023-04-25T10:23:11;2.15;;;1.00;;
78889;SDS011;68279;48.964;14.502;2023-04-25T10:25:38;3.00;;;1.52;;
78889;SDS011;68279;48.964;14.502;2023-04-25T10:28:05;2.63;;;1.25;;
78889;SDS011;68279;48.964;14.502;2023-04-25T10:30:31;2.78;;;1.10;;
78889;SDS011;68279;48.964;14.502;2023-04-25T10:32:58;2.35;;;1.17;;
78889;SDS011;68279;48.964;14.502;2023-04-25T10:35:25;2.95;;;1.63;;
78889;SDS011;68279;48.964;14.502;2023-04-25T10:41:07;2.33;;;1.27;;
78889;SDS011;68279;48.964;14.502;2023-04-25T10:43:39;3.20;;;1.10;;
78889;SDS011;68279;48.964;14.502;2023-04-25T10:46:18;2.83;;;1.00;;
78889;SDS011;68279;48.964;14.502;2023-04-25T10:49:05;1.90;;;1.13;;
78889;SDS011;68279;48.964;14.502;2023-04-25T10:51:33;3.10;;;1.10;;
78889;SDS011;68279;48.964;14.502;2023-04-25T10:54:04;2.10;;;1.23;;
78889;SDS011;68279;48.964;14.502;2023-04-25T10:56:32;2.22;;;1.30;;
78889;SDS011;68279;48.964;14.502;2023-04-25T11:01:36;2.47;;;1.50;;
78889;SDS011;68279;48.964;14.502;2023-04-25T11:04:24;2.50;;;1.25;;
78889;SDS011;68279;48.964;14.502;2023-04-25T11:09:27;2.97;;;1.00;;
78889;SDS011;68279;48.964;14.502;2023-04-25T11:11:57;2.17;;;1.00;;
78889;SDS011;68279;48.964;14.502;2023-04-25T11:14:24;3.83;;;1.30;;
78889;SDS011;68279;48.964;14.502;2023-04-25T11:16:54;2.63;;;1.33;;
78889;SDS011;68279;48.964;14.502;2023-04-25T11:19:21;2.92;;;1.13;;
78889;SDS011;68279;48.964;14.502;2023-04-25T11:21:47;2.78;;;1.70;;
78889;SDS011;68279;48.964;14.502;2023-04-25T11:24:12;3.30;;;1.40;;
78889;SDS011;68279;48.964;14.502;2023-04-25T11:26:38;2.90;;;1.38;;
78889;SDS011;68279;48.964;14.502;2023-04-25T11:29:07;2.67;;;1.45;;
78889;SDS011;68279;48.964;14.502;2023-04-25T11:31:32;2.03;;;0.98;;
78889;SDS011;68279;48.964;14.502;2023-04-25T11:33:58;2.00;;;1.13;;
78889;SDS011;68279;48.964;14.502;2023-04-25T11:36:24;2.42;;;1.35;;
78889;SDS011;68279;48.964;14.502;2023-04-25T11:38:52;2.80;;;1.75;;
78889;SDS011;68279;48.964;14.502;2023-04-25T11:41:19;2.83;;;1.42;;
78889;SDS011;68279;48.964;14.502;2023-04-25T11:43:47;2.63;;;1.40;;
78889;SDS011;68279;48.964;14.502;2023-04-25T11:46:14;3.35;;;1.48;;
78889;SDS011;68279;48.964;14.502;2023-04-25T11:48:40;3.03;;;1.83;;
78889;SDS011;68279;48.964;14.502;2023-04-25T11:51:07;3.80;;;2.05;;
78889;SDS011;68279;48.964;14.502;2023-04-25T11:53:33;2.78;;;1.63;;
78889;SDS011;68279;48.964;14.502;2023-04-25T11:55:59;3.58;;;1.65;;
78889;SDS011;68279;48.964;14.502;2023-04-25T11:58:25;5.20;;;2.08;;
78889;SDS011;68279;48.964;14.502;2023-04-25T12:00:51;2.10;;;1.02;;
78889;SDS011;68279;48.964;14.502;2023-04-25T12:03:19;1.83;;;0.85;;
78889;SDS011;68279;48.964;14.502;2023-04-25T12:05:45;0.73;;;0.40;;
78889;SDS011;68279;48.964;14.502;2023-04-25T12:10:37;1.27;;;0.57;;
78889;SDS011;68279;48.964;14.502;2023-04-25T12:13:24;1.70;;;0.60;;
78889;SDS011;68279;48.964;14.502;2023-04-25T12:15:51;1.75;;;0.88;;
78889;SDS011;68279;48.964;14.502;2023-04-25T12:18:20;1.42;;;0.43;;
78889;SDS011;68279;48.964;14.502;2023-04-25T12:20:47;2.22;;;0.95;;
78889;SDS011;68279;48.964;14.502;2023-04-25T12:23:13;1.83;;;0.88;;
78889;SDS011;68279;48.964;14.502;2023-04-25T12:25:41;1.52;;;0.70;;
78889;SDS011;68279;48.964;14.502;2023-04-25T12:30:56;1.42;;;0.60;;
78889;SDS011;68279;48.964;14.502;2023-04-25T12:33:23;1.30;;;0.57;;
78889;SDS011;68279;48.964;14.502;2023-04-25T12:35:50;1.92;;;0.95;;
78889;SDS011;68279;48.964;14.502;2023-04-25T12:38:25;1.90;;;0.90;;
78889;SDS011;68279;48.964;14.502;2023-04-25T12:40:55;1.35;;;0.70;;
78889;SDS011;68279;48.964;14.502;2023-04-25T12:43:21;2.15;;;1.02;;
78889;SDS011;68279;48.964;14.502;2023-04-25T12:45:48;1.33;;;0.68;;
78889;SDS011;68279;48.964;14.502;2023-04-25T12:48:16;1.98;;;0.80;;
78889;SDS011;68279;48.964;14.502;2023-04-25T12:50:42;1.17;;;0.65;;
78889;SDS011;68279;48.964;14.502;2023-04-25T12:53:08;1.30;;;0.60;;
78889;SDS011;68279;48.964;14.502;2023-04-25T12:55:35;1.02;;;0.82;;
78889;SDS011;68279;48.964;14.502;2023-04-25T12:58:01;0.93;;;0.32;;
78889;SDS011;68279;48.964;14.502;2023-04-25T13:00:28;1.20;;;0.70;;
78889;SDS011;68279;48.964;14.502;2023-04-25T13:02:54;1.60;;;0.60;;
78889;SDS011;68279;48.964;14.502;2023-04-25T13:05:20;0.90;;;0.40;;
78889;SDS011;68279;48.964;14.502;2023-04-25T13:07:46;1.05;;;0.80;;
78889;SDS011;68279;48.964;14.502;2023-04-25T13:10:13;1.00;;;0.45;;
78889;SDS011;68279;48.964;14.502;2023-04-25T13:12:39;1.00;;;0.50;;
78889;SDS011;68279;48.964;14.502;2023-04-25T13:15:05;1.92;;;0.40;;
78889;SDS011;68279;48.964;14.502;2023-04-25T13:17:32;1.20;;;0.70;;
78889;SDS011;68279;48.964;14.502;2023-04-25T13:19:57;1.20;;;0.65;;
78889;SDS011;68279;48.964;14.502;2023-04-25T13:22:23;1.00;;;0.47;;
78889;SDS011;68279;48.964;14.502;2023-04-25T13:24:49;2.30;;;0.80;;
78889;SDS011;68279;48.964;14.502;2023-04-25T13:27:14;1.30;;;0.47;;
78889;SDS011;68279;48.964;14.502;2023-04-25T13:29:41;3.92;;;1.77;;
78889;SDS011;68279;48.964;14.502;2023-04-25T13:32:08;1.73;;;0.85;;
78889;SDS011;68279;48.964;14.502;2023-04-25T13:34:34;1.63;;;0.82;;
78889;SDS011;68279;48.964;14.502;2023-04-25T13:37:00;1.80;;;0.80;;
78889;SDS011;68279;48.964;14.502;2023-04-25T13:39:26;1.95;;;0.80;;
78889;SDS011;68279;48.964;14.502;2023-04-25T13:41:51;1.55;;;0.73;;
78889;SDS011;68279;48.964;14.502;2023-04-25T13:44:19;4.85;;;1.17;;
78889;SDS011;68279;48.964;14.502;2023-04-25T13:46:45;2.15;;;0.82;;
78889;SDS011;68279;48.964;14.502;2023-04-25T13:49:11;1.70;;;0.80;;
78889;SDS011;68279;48.964;14.502;2023-04-25T13:51:37;1.90;;;1.13;;
78889;SDS011;68279;48.964;14.502;2023-04-25T13:54:02;1.85;;;0.80;;
78889;SDS011;68279;48.964;14.502;2023-04-25T13:56:28;1.70;;;0.80;;
78889;SDS011;68279;48.964;14.502;2023-04-25T13:58:54;1.70;;;0.80;;
78889;SDS011;68279;48.964;14.502;2023-04-25T14:01:21;2.15;;;1.23;;
78889;SDS011;68279;48.964;14.502;2023-04-25T14:03:46;2.30;;;1.08;;
78889;SDS011;68279;48.964;14.502;2023-04-25T14:06:12;2.00;;;1.25;;
78889;SDS011;68279;48.964;14.502;2023-04-25T14:08:40;1.67;;;0.95;;
78889;SDS011;68279;48.964;14.502;2023-04-25T14:11:09;1.60;;;0.93;;
78889;SDS011;68279;48.964;14.502;2023-04-25T14:13:35;2.60;;;1.02;;
78889;SDS011;68279;48.964;14.502;2023-04-25T14:16:00;2.47;;;1.33;;
78889;SDS011;68279;48.964;14.502;2023-04-25T14:18:27;2.42;;;0.90;;
78889;SDS011;68279;48.964;14.502;2023-04-25T14:20:52;2.22;;;0.93;;
78889;SDS011;68279;48.964;14.502;2023-04-25T14:23:18;2.47;;;1.17;;
78889;SDS011;68279;48.964;14.502;2023-04-25T14:25:44;3.17;;;1.05;;
78889;SDS011;68279;48.964;14.502;2023-04-25T14:28:10;2.13;;;1.00;;
78889;SDS011;68279;48.964;14.502;2023-04-25T14:30:35;2.20;;;0.90;;
78889;SDS011;68279;48.964;14.502;2023-04-25T14:33:01;2.00;;;0.90;;
78889;SDS011;68279;48.964;14.502;2023-04-25T14:35:26;2.63;;;1.00;;
78889;SDS011;68279;48.964;14.502;2023-04-25T14:37:52;2.50;;;1.33;;
78889;SDS011;68279;48.964;14.502;2023-04-25T14:40:19;2.30;;;1.23;;
78889;SDS011;68279;48.964;14.502;2023-04-25T14:42:48;2.28;;;1.40;;
78889;SDS011;68279;48.964;14.502;2023-04-25T14:45:14;2.40;;;1.00;;
78889;SDS011;68279;48.964;14.502;2023-04-25T14:47:40;3.03;;;1.38;;
78889;SDS011;68279;48.964;14.502;2023-04-25T14:50:06;2.30;;;1.02;;